createdAt,value
2023-03-15T00:00:12.581Z,2.92
2023-03-15T00:01:12.559Z,2.98
2023-03-15T00:02:12.565Z,2.85
2023-03-15T00:03:12.549Z,2.95
2023-03-15T00:04:12.531Z,2.86
2023-03-15T00:05:12.561Z,2.82
2023-03-15T00:06:12.526Z,2.92
2023-03-15T00:07:12.529Z,2.92
2023-03-15T00:08:12.541Z,2.87
2023-03-15T00:09:12.516Z,2.86
2023-03-15T00:10:12.501Z,2.90
2023-03-15T00:11:12.510Z,2.86
2023-03-15T00:12:12.485Z,2.93
2023-03-15T00:13:12.488Z,2.90
2023-03-15T00:14:12.477Z,2.92
2023-03-15T00:15:12.475Z,2.80
2023-03-15T00:16:12.529Z,2.75
2023-03-15T00:17:12.466Z,2.85
2023-03-15T00:18:12.457Z,2.85
2023-03-15T00:19:12.461Z,2.75
2023-03-15T00:20:12.467Z,2.71
2023-03-15T00:21:12.441Z,2.71
2023-03-15T00:22:12.464Z,2.62
2023-03-15T00:23:12.443Z,2.61
2023-03-15T00:24:12.444Z,2.68
2023-03-15T00:25:12.413Z,2.53
2023-03-15T00:26:12.434Z,2.61
2023-03-15T00:27:12.430Z,2.64
2023-03-15T00:28:12.409Z,2.57
2023-03-15T00:29:12.403Z,2.67
2023-03-15T00:30:12.397Z,2.57
2023-03-15T00:31:12.464Z,2.56
2023-03-15T00:32:12.436Z,2.54
2023-03-15T00:33:12.409Z,2.44
2023-03-15T00:34:12.372Z,2.47
2023-03-15T00:35:12.366Z,2.53
2023-03-15T00:36:12.464Z,2.46
2023-03-15T00:37:12.369Z,2.44
2023-03-15T00:38:12.348Z,2.50
2023-03-15T00:39:12.372Z,2.46
2023-03-15T00:40:12.348Z,2.46
2023-03-15T00:41:12.328Z,2.43
2023-03-15T00:42:12.338Z,2.35
2023-03-15T00:43:12.319Z,2.44
2023-03-15T00:44:12.361Z,2.33
2023-03-15T00:45:12.308Z,2.46
2023-03-15T00:46:12.356Z,2.43
2023-03-15T00:47:12.298Z,2.32
2023-03-15T00:48:12.300Z,2.36
2023-03-15T00:49:12.325Z,2.28
2023-03-15T00:50:12.284Z,2.29
2023-03-15T00:51:12.268Z,2.26
2023-03-15T00:52:12.263Z,2.26
2023-03-15T00:53:12.277Z,2.28
2023-03-15T00:54:12.266Z,2.22
2023-03-15T00:55:12.268Z,2.26
2023-03-15T00:56:12.277Z,2.22
2023-03-15T00:57:12.245Z,2.08
2023-03-15T00:58:12.227Z,2.15
2023-03-15T00:59:12.229Z,2.11
2023-03-15T01:00:12.225Z,2.11
2023-03-15T01:01:12.262Z,2.17
2023-03-15T01:02:12.220Z,2.17
2023-03-15T01:03:12.241Z,2.07
2023-03-15T01:04:12.199Z,2.17
2023-03-15T01:05:12.193Z,2.13
2023-03-15T01:06:12.193Z,2.08
2023-03-15T01:07:12.201Z,2.08
2023-03-15T01:08:12.175Z,2.04
2023-03-15T01:09:12.169Z,2.02
2023-03-15T01:10:12.166Z,1.99
2023-03-15T01:11:12.166Z,1.89
2023-03-15T01:12:12.180Z,1.95
2023-03-15T01:13:12.153Z,1.97
2023-03-15T01:14:12.134Z,1.91
2023-03-15T01:15:12.157Z,1.81
2023-03-15T01:16:12.186Z,1.80
2023-03-15T01:17:12.128Z,1.74
2023-03-15T01:18:12.135Z,1.87
2023-03-15T01:19:12.113Z,1.77
2023-03-15T01:20:12.107Z,1.74
2023-03-15T01:21:12.105Z,1.85
2023-03-15T01:22:12.092Z,1.89
2023-03-15T01:23:12.126Z,1.92
2023-03-15T01:24:12.071Z,1.91
2023-03-15T01:25:12.092Z,1.85
2023-03-15T01:26:12.097Z,1.91
2023-03-15T01:27:12.064Z,1.73
2023-03-15T01:28:12.060Z,1.78
2023-03-15T01:29:12.075Z,1.73
2023-03-15T01:30:12.068Z,1.84
2023-03-15T01:31:12.083Z,1.81
2023-03-15T01:32:12.045Z,1.70
2023-03-15T01:33:12.020Z,1.78
2023-03-15T01:34:12.022Z,1.76
2023-03-15T01:35:12.030Z,1.68
2023-03-15T01:36:12.007Z,1.74
2023-03-15T01:37:12.016Z,1.73
2023-03-15T01:38:12.005Z,1.73
2023-03-15T01:39:11.995Z,1.78
2023-03-15T01:40:12.008Z,1.63
2023-03-15T01:41:11.981Z,1.70
2023-03-15T01:42:11.983Z,1.70
2023-03-15T01:43:11.956Z,1.71
2023-03-15T01:44:11.975Z,1.73
2023-03-15T01:45:11.957Z,1.62
2023-03-15T01:46:11.948Z,1.67
2023-03-15T01:47:12.018Z,1.59
2023-03-15T01:48:11.938Z,1.49
2023-03-15T01:49:11.945Z,1.59
2023-03-15T01:50:11.954Z,1.53
2023-03-15T01:51:11.921Z,1.50
2023-03-15T01:52:11.923Z,1.56
2023-03-15T01:53:11.907Z,1.48
2023-03-15T01:54:11.907Z,1.45
2023-03-15T01:55:11.907Z,1.41
2023-03-15T01:56:11.880Z,1.42
2023-03-15T01:57:11.890Z,1.41
2023-03-15T01:58:11.881Z,1.44
2023-03-15T01:59:11.889Z,1.45
2023-03-15T02:00:11.866Z,1.44
2023-03-15T02:01:11.872Z,1.45
2023-03-15T02:02:11.904Z,1.52
2023-03-15T02:03:11.849Z,1.48
2023-03-15T02:04:11.867Z,1.48
2023-03-15T02:05:11.848Z,1.53
2023-03-15T02:06:11.842Z,1.45
2023-03-15T02:07:11.846Z,1.41
2023-03-15T02:08:11.831Z,1.40
2023-03-15T02:09:11.813Z,1.38
2023-03-15T02:10:11.821Z,1.42
2023-03-15T02:11:11.799Z,1.37
2023-03-15T02:12:11.796Z,1.42
2023-03-15T02:13:11.795Z,1.35
2023-03-15T02:14:11.792Z,1.28
2023-03-15T02:15:11.807Z,1.23
2023-03-15T02:16:11.810Z,1.28
2023-03-15T02:17:11.781Z,1.23
2023-03-15T02:18:11.772Z,1.19
2023-03-15T02:19:11.763Z,1.20
2023-03-15T02:20:11.758Z,1.13
2023-03-15T02:21:11.777Z,1.19
2023-03-15T02:22:11.751Z,1.24
2023-03-15T02:23:11.767Z,1.20
2023-03-15T02:24:11.749Z,1.14
2023-03-15T02:25:11.733Z,1.16
2023-03-15T02:26:11.744Z,1.14
2023-03-15T02:27:11.759Z,1.16
2023-03-15T02:28:11.721Z,1.10
2023-03-15T02:29:11.741Z,1.14
2023-03-15T02:30:11.717Z,1.14
2023-03-15T02:31:11.718Z,1.17
2023-03-15T02:32:11.699Z,1.14
2023-03-15T02:33:11.689Z,1.12
2023-03-15T02:34:11.677Z,1.10
2023-03-15T02:35:11.698Z,1.10
2023-03-15T02:36:11.727Z,1.17
2023-03-15T02:37:11.671Z,1.12
2023-03-15T02:38:11.658Z,1.17
2023-03-15T02:39:11.663Z,1.17
2023-03-15T02:40:11.673Z,1.24
2023-03-15T02:41:11.649Z,1.17
2023-03-15T02:42:11.638Z,1.22
2023-03-15T02:43:11.638Z,1.17
2023-03-15T02:44:11.628Z,1.26
2023-03-15T02:45:11.629Z,1.26
2023-03-15T02:46:11.681Z,1.26
2023-03-15T02:47:11.610Z,1.38
2023-03-15T02:48:11.604Z,1.52
2023-03-15T02:49:11.622Z,1.45
2023-03-15T02:50:11.591Z,1.48
2023-03-15T02:51:11.621Z,1.41
2023-03-15T02:52:11.582Z,1.52
2023-03-15T02:53:11.582Z,1.44
2023-03-15T02:54:11.588Z,1.32
2023-03-15T02:55:11.566Z,1.30
2023-03-15T02:56:11.686Z,1.28
2023-03-15T02:57:11.555Z,1.16
2023-03-15T02:58:11.541Z,1.17
2023-03-15T02:59:11.552Z,1.13
2023-03-15T03:00:11.539Z,1.20
2023-03-15T03:01:11.641Z,1.49
2023-03-15T03:02:11.591Z,1.44
2023-03-15T03:03:11.563Z,1.59
2023-03-15T03:04:11.521Z,1.63
2023-03-15T03:05:11.510Z,1.67
2023-03-15T03:06:11.494Z,1.84
2023-03-15T03:07:11.497Z,1.78
2023-03-15T03:08:11.488Z,1.78
2023-03-15T03:09:11.511Z,1.81
2023-03-15T03:10:11.471Z,1.84
2023-03-15T03:11:11.493Z,1.71
2023-03-15T03:12:11.469Z,1.81
2023-03-15T03:13:11.470Z,1.84
2023-03-15T03:14:11.466Z,1.68
2023-03-15T03:15:11.493Z,1.66
2023-03-15T03:16:11.444Z,1.73
2023-03-15T03:17:11.447Z,1.67
2023-03-15T03:18:11.430Z,1.62
2023-03-15T03:19:11.430Z,1.74
2023-03-15T03:20:11.422Z,1.71
2023-03-15T03:21:11.438Z,1.78
2023-03-15T03:22:11.413Z,1.68
2023-03-15T03:23:11.412Z,1.63
2023-03-15T03:24:11.396Z,1.71
2023-03-15T03:25:11.394Z,1.68
2023-03-15T03:26:11.409Z,1.73
2023-03-15T03:27:11.376Z,1.77
2023-03-15T03:28:11.371Z,1.80
2023-03-15T03:29:11.370Z,1.81
2023-03-15T03:30:11.372Z,1.81
2023-03-15T03:31:11.437Z,1.91
2023-03-15T03:32:11.355Z,1.94
2023-03-15T03:33:11.339Z,2.08
2023-03-15T03:34:11.337Z,1.99
2023-03-15T03:35:11.335Z,2.10
2023-03-15T03:36:11.337Z,2.20
2023-03-15T03:37:11.344Z,2.20
2023-03-15T03:38:11.318Z,2.17
2023-03-15T03:39:11.334Z,2.20
2023-03-15T03:40:11.303Z,2.32
2023-03-15T03:41:11.307Z,2.28
2023-03-15T03:42:11.357Z,2.32
2023-03-15T03:43:11.298Z,2.22
2023-03-15T03:44:11.289Z,2.35
2023-03-15T03:45:11.302Z,2.33
2023-03-15T03:46:11.356Z,2.26
2023-03-15T03:47:11.269Z,2.26
2023-03-15T03:48:11.282Z,2.38
2023-03-15T03:49:11.250Z,2.46
2023-03-15T03:50:11.274Z,2.38
2023-03-15T03:51:11.255Z,2.35
2023-03-15T03:52:11.234Z,2.32
2023-03-15T03:53:11.253Z,2.36
2023-03-15T03:54:11.231Z,2.47
2023-03-15T03:55:11.224Z,2.50
2023-03-15T03:56:11.219Z,2.50
2023-03-15T03:57:11.242Z,2.53
2023-03-15T03:58:11.212Z,2.46
2023-03-15T03:59:11.208Z,2.39
2023-03-15T04:00:11.209Z,2.50
2023-03-15T04:01:11.241Z,2.50
2023-03-15T04:02:11.263Z,2.60
2023-03-15T04:03:11.206Z,2.49
2023-03-15T04:04:11.179Z,2.56
2023-03-15T04:05:11.170Z,2.51
2023-03-15T04:06:11.165Z,2.51
2023-03-15T04:07:11.204Z,2.57
2023-03-15T04:08:11.165Z,2.56
2023-03-15T04:09:11.137Z,2.62
2023-03-15T04:10:11.126Z,2.53
2023-03-15T04:11:11.124Z,2.57
2023-03-15T04:12:11.177Z,2.50
2023-03-15T04:13:11.158Z,2.46
2023-03-15T04:14:11.099Z,2.57
2023-03-15T04:15:11.101Z,2.50
2023-03-15T04:16:11.199Z,2.61
2023-03-15T04:17:11.094Z,2.62
2023-03-15T04:18:11.081Z,2.65
2023-03-15T04:19:11.090Z,2.67
2023-03-15T04:20:11.057Z,2.64
2023-03-15T04:21:11.240Z,2.61
2023-03-15T04:22:11.054Z,2.57
2023-03-15T04:23:11.042Z,2.71
2023-03-15T04:24:11.054Z,2.69
2023-03-15T04:25:11.059Z,2.67
2023-03-15T04:26:11.075Z,2.68
2023-03-15T04:27:11.040Z,2.46
2023-03-15T04:28:11.071Z,2.65
2023-03-15T04:29:11.018Z,2.62
2023-03-15T04:30:11.012Z,2.65
2023-03-15T04:31:11.028Z,2.67
2023-03-15T04:32:11.008Z,2.64
2023-03-15T04:33:10.993Z,2.65
2023-03-15T04:34:11.029Z,2.69
2023-03-15T04:35:10.988Z,2.64
2023-03-15T04:36:11.075Z,2.67
2023-03-15T04:37:10.978Z,2.56
2023-03-15T04:38:10.969Z,2.61
2023-03-15T04:39:10.984Z,2.54
2023-03-15T04:40:10.958Z,2.56
2023-03-15T04:41:10.993Z,2.51
2023-03-15T04:42:10.943Z,2.51
2023-03-15T04:43:10.948Z,2.69
2023-03-15T04:44:10.967Z,2.62
2023-03-15T04:45:10.937Z,2.62
2023-03-15T04:46:10.929Z,2.72
2023-03-15T04:47:10.953Z,2.62
2023-03-15T04:48:10.994Z,2.71
2023-03-15T04:49:10.907Z,2.77
2023-03-15T04:50:10.931Z,2.68
2023-03-15T04:51:10.920Z,2.75
2023-03-15T04:52:10.897Z,2.72
2023-03-15T04:53:10.889Z,2.77
2023-03-15T04:54:10.885Z,2.77
2023-03-15T04:55:10.874Z,2.75
2023-03-15T04:56:10.889Z,2.79
2023-03-15T04:57:10.868Z,2.90
2023-03-15T04:58:10.856Z,2.95
2023-03-15T04:59:10.857Z,2.92
2023-03-15T05:00:10.853Z,2.92
2023-03-15T05:01:10.936Z,2.90
2023-03-15T05:02:10.872Z,2.82
2023-03-15T05:03:10.830Z,2.77
2023-03-15T05:04:10.859Z,2.82
2023-03-15T05:05:10.814Z,2.77
2023-03-15T05:06:10.833Z,2.72
2023-03-15T05:07:10.827Z,2.74
2023-03-15T05:08:10.798Z,2.79
2023-03-15T05:09:10.791Z,2.79
2023-03-15T05:10:10.793Z,2.77
2023-03-15T05:11:10.790Z,2.87
2023-03-15T05:12:10.830Z,2.80
2023-03-15T05:13:10.785Z,2.85
2023-03-15T05:14:10.767Z,2.85
2023-03-15T05:15:10.794Z,2.85
2023-03-15T05:16:10.811Z,2.82
2023-03-15T05:17:10.784Z,2.86
2023-03-15T05:18:10.739Z,2.83
2023-03-15T05:19:10.752Z,2.85
2023-03-15T05:20:10.831Z,2.87
2023-03-15T05:21:10.729Z,2.86
2023-03-15T05:22:10.724Z,2.89
2023-03-15T05:23:10.738Z,2.90
2023-03-15T05:24:10.733Z,2.92
2023-03-15T05:25:10.730Z,2.97
2023-03-15T05:26:10.721Z,2.89
2023-03-15T05:27:10.705Z,2.89
2023-03-15T05:28:10.692Z,2.87
2023-03-15T05:29:10.691Z,2.90
2023-03-15T05:30:10.687Z,2.83
2023-03-15T05:31:10.701Z,2.74
2023-03-15T05:32:10.681Z,2.86
2023-03-15T05:33:10.674Z,2.79
2023-03-15T05:34:10.666Z,2.75
2023-03-15T05:35:10.660Z,2.68
2023-03-15T05:36:10.657Z,2.83
2023-03-15T05:37:10.666Z,2.71
2023-03-15T05:38:10.630Z,2.77
2023-03-15T05:39:10.634Z,2.72
2023-03-15T05:40:10.623Z,2.69
2023-03-15T05:41:10.636Z,2.71
2023-03-15T05:42:10.612Z,2.68
2023-03-15T05:43:10.611Z,2.62
2023-03-15T05:44:10.642Z,2.61
2023-03-15T05:45:10.619Z,2.64
2023-03-15T05:46:10.665Z,2.65
2023-03-15T05:47:10.574Z,2.72
2023-03-15T05:48:10.590Z,2.60
2023-03-15T05:49:10.567Z,2.65
2023-03-15T05:50:10.554Z,2.77
2023-03-15T05:51:10.595Z,2.71
2023-03-15T05:52:10.548Z,2.65
2023-03-15T05:53:10.589Z,2.57
2023-03-15T05:54:10.541Z,2.54
2023-03-15T05:55:10.535Z,2.65
2023-03-15T05:56:10.517Z,2.68
2023-03-15T05:57:10.547Z,2.65
2023-03-15T05:58:10.512Z,2.68
2023-03-15T05:59:10.511Z,2.69
2023-03-15T06:00:10.499Z,2.65
2023-03-15T06:01:10.511Z,2.71
2023-03-15T06:02:10.496Z,2.60
2023-03-15T06:03:10.592Z,2.72
2023-03-15T06:04:10.513Z,2.67
2023-03-15T06:05:10.483Z,2.62
2023-03-15T06:06:10.467Z,2.54
2023-03-15T06:07:10.488Z,2.57
2023-03-15T06:08:10.485Z,2.46
2023-03-15T06:09:10.466Z,2.53
2023-03-15T06:10:10.465Z,2.49
2023-03-15T06:11:10.460Z,2.57
2023-03-15T06:12:10.453Z,2.50
2023-03-15T06:13:10.441Z,2.49
2023-03-15T06:14:10.424Z,2.47
2023-03-15T06:15:10.428Z,2.38
2023-03-15T06:16:10.446Z,2.51
2023-03-15T06:17:10.417Z,2.50
2023-03-15T06:18:10.399Z,2.47
2023-03-15T06:19:10.421Z,2.49
2023-03-15T06:20:10.388Z,2.43
2023-03-15T06:21:10.394Z,2.49
2023-03-15T06:22:10.372Z,2.51
2023-03-15T06:23:10.389Z,2.51
2023-03-15T06:24:10.381Z,2.43
2023-03-15T06:25:10.377Z,2.36
2023-03-15T06:26:10.344Z,3.13
2023-03-15T06:27:10.341Z,4.17
2023-03-15T06:28:10.336Z,4.78
2023-03-15T06:29:10.399Z,5.48
2023-03-15T06:30:10.325Z,5.79
2023-03-15T06:31:10.372Z,6.24
2023-03-15T06:32:10.309Z,6.57
2023-03-15T06:33:10.313Z,6.63
2023-03-15T06:34:10.318Z,6.93
2023-03-15T06:35:10.288Z,7.14
2023-03-15T06:36:10.324Z,7.23
2023-03-15T06:37:10.313Z,7.25
2023-03-15T06:38:11.954Z,7.02
2023-03-15T06:39:10.283Z,6.63
2023-03-15T06:40:10.297Z,6.33
2023-03-15T06:41:10.281Z,6.16
2023-03-15T06:42:10.285Z,5.82
2023-03-15T06:43:10.252Z,5.36
2023-03-15T06:44:10.241Z,5.15
2023-03-15T06:45:10.247Z,4.73
2023-03-15T06:46:10.268Z,4.41
2023-03-15T06:47:10.238Z,4.20
2023-03-15T06:48:10.211Z,4.01
2023-03-15T06:49:10.209Z,4.06
2023-03-15T06:50:10.210Z,3.87
2023-03-15T06:51:10.235Z,3.70
2023-03-15T06:52:10.186Z,3.70
2023-03-15T06:53:10.197Z,3.55
2023-03-15T06:54:10.175Z,3.58
2023-03-15T06:55:10.230Z,3.58
2023-03-15T06:56:10.208Z,3.47
2023-03-15T06:57:10.179Z,3.53
2023-03-15T06:58:10.177Z,3.45
2023-03-15T06:59:10.179Z,3.48
2023-03-15T07:00:10.166Z,3.21
2023-03-15T07:01:10.183Z,3.31
2023-03-15T07:02:10.166Z,3.19
2023-03-15T07:03:10.110Z,3.25
2023-03-15T07:04:10.118Z,3.21
2023-03-15T07:05:10.162Z,3.23
2023-03-15T07:06:10.156Z,3.10
2023-03-15T07:07:10.115Z,3.10
2023-03-15T07:08:10.100Z,3.03
2023-03-15T07:09:10.094Z,3.05
2023-03-15T07:10:10.142Z,3.08
2023-03-15T07:11:10.097Z,2.95
2023-03-15T07:12:10.101Z,3.05
2023-03-15T07:13:10.112Z,3.10
2023-03-15T07:14:10.059Z,3.08
2023-03-15T07:15:10.055Z,3.03
2023-03-15T07:16:10.108Z,3.07
2023-03-15T07:17:10.039Z,3.10
2023-03-15T07:18:10.060Z,3.16
2023-03-15T07:19:10.028Z,3.16
2023-03-15T07:20:10.016Z,3.14
2023-03-15T07:21:10.041Z,3.18
2023-03-15T07:22:10.008Z,3.28
2023-03-15T07:23:10.002Z,3.26
2023-03-15T07:24:09.995Z,3.21
2023-03-15T07:25:09.989Z,3.22
2023-03-15T07:26:10.032Z,3.18
2023-03-15T07:27:09.983Z,3.32
2023-03-15T07:28:09.993Z,3.37
2023-03-15T07:29:09.960Z,3.42
2023-03-15T07:30:09.954Z,3.44
2023-03-15T07:31:10.001Z,3.44
2023-03-15T07:32:09.960Z,3.50
2023-03-15T07:33:10.002Z,3.45
2023-03-15T07:34:09.950Z,3.34
2023-03-15T07:35:12.965Z,3.50
2023-03-15T07:36:09.965Z,3.50
2023-03-15T07:37:09.935Z,3.34
2023-03-15T07:38:09.915Z,3.47
2023-03-15T07:39:09.935Z,3.40
2023-03-15T07:40:09.930Z,3.56
2023-03-15T07:41:09.901Z,3.40
2023-03-15T07:42:09.906Z,3.44
2023-03-15T07:43:09.919Z,3.47
2023-03-15T07:44:09.875Z,3.50
2023-03-15T07:45:09.904Z,3.59
2023-03-15T07:46:09.972Z,3.60
2023-03-15T07:47:09.867Z,3.65
2023-03-15T07:48:09.875Z,3.56
2023-03-15T07:49:09.872Z,3.58
2023-03-15T07:50:09.858Z,3.56
2023-03-15T07:51:09.861Z,3.60
2023-03-15T07:52:09.875Z,3.58
2023-03-15T07:53:09.836Z,3.65
2023-03-15T07:54:09.846Z,3.65
2023-03-15T07:55:09.837Z,3.60
2023-03-15T07:56:09.854Z,3.65
2023-03-15T07:57:09.812Z,3.63
2023-03-15T07:58:09.806Z,3.68
2023-03-15T07:59:09.807Z,3.69
2023-03-15T08:00:09.792Z,3.58
2023-03-15T08:01:09.785Z,3.55
2023-03-15T08:02:09.933Z,3.55
2023-03-15T08:03:09.822Z,3.59
2023-03-15T08:04:09.785Z,3.74
2023-03-15T08:05:09.792Z,3.76
2023-03-15T08:06:09.769Z,3.76
2023-03-15T08:07:09.788Z,3.77
2023-03-15T08:08:09.749Z,3.74
2023-03-15T08:09:09.761Z,3.86
2023-03-15T08:10:09.776Z,3.98
2023-03-15T08:11:09.752Z,3.94
2023-03-15T08:12:09.738Z,3.95
2023-03-15T08:13:09.724Z,3.95
2023-03-15T08:14:09.714Z,4.01
2023-03-15T08:15:09.709Z,3.86
2023-03-15T08:16:09.784Z,4.02
2023-03-15T08:17:09.729Z,4.05
2023-03-15T08:18:09.689Z,4.04
2023-03-15T08:19:09.687Z,4.05
2023-03-15T08:20:09.700Z,4.20
2023-03-15T08:21:09.678Z,4.23
2023-03-15T08:22:09.670Z,4.05
2023-03-15T08:23:09.692Z,4.20
2023-03-15T08:24:09.680Z,4.22
2023-03-15T08:25:09.667Z,4.24
2023-03-15T08:26:09.645Z,4.16
2023-03-15T08:27:09.662Z,4.04
2023-03-15T08:28:09.661Z,4.14
2023-03-15T08:29:09.675Z,4.14
2023-03-15T08:30:09.706Z,4.35
2023-03-15T08:31:09.672Z,4.30
2023-03-15T08:32:09.639Z,4.31
2023-03-15T08:33:09.674Z,4.32
2023-03-15T08:34:09.625Z,4.34
2023-03-15T08:35:09.622Z,4.37
2023-03-15T08:36:09.691Z,4.35
2023-03-15T08:37:09.598Z,4.44
2023-03-15T08:38:09.619Z,4.42
2023-03-15T08:39:09.612Z,4.45
2023-03-15T08:40:09.576Z,4.52
2023-03-15T08:41:09.572Z,4.55
2023-03-15T08:42:09.573Z,4.34
2023-03-15T08:43:09.572Z,4.38
2023-03-15T08:44:09.572Z,4.26
2023-03-15T08:45:09.574Z,4.50
2023-03-15T08:46:09.573Z,4.50
2023-03-15T08:47:09.540Z,4.50
2023-03-15T08:48:09.557Z,4.58
2023-03-15T08:49:09.571Z,4.58
2023-03-15T08:50:09.525Z,4.56
2023-03-15T08:51:09.528Z,4.53
2023-03-15T08:52:09.534Z,4.48
2023-03-15T08:53:09.508Z,4.44
2023-03-15T08:54:09.498Z,4.60
2023-03-15T08:55:09.504Z,4.52
2023-03-15T08:56:09.488Z,4.40
2023-03-15T08:57:09.489Z,4.42
2023-03-15T08:58:09.498Z,4.41
2023-03-15T08:59:10.261Z,4.48
2023-03-15T09:00:09.460Z,4.52
2023-03-15T09:01:09.487Z,4.49
2023-03-15T09:02:09.486Z,4.45
2023-03-15T09:03:09.511Z,4.40
2023-03-15T09:04:09.523Z,4.45
2023-03-15T09:05:09.479Z,4.41
2023-03-15T09:06:09.428Z,4.34
2023-03-15T09:07:09.448Z,4.34
2023-03-15T09:08:09.431Z,4.37
2023-03-15T09:09:09.434Z,4.42
2023-03-15T09:10:09.407Z,4.38
2023-03-15T09:11:09.431Z,4.30
2023-03-15T09:12:09.403Z,4.23
2023-03-15T09:13:09.420Z,4.20
2023-03-15T09:14:09.386Z,4.19
2023-03-15T09:15:09.383Z,4.22
2023-03-15T09:16:09.426Z,4.22
2023-03-15T09:17:09.449Z,4.24
2023-03-15T09:18:09.406Z,4.35
2023-03-15T09:19:09.403Z,4.31
2023-03-15T09:20:09.379Z,4.41
2023-03-15T09:21:09.357Z,4.45
2023-03-15T09:22:16.837Z,4.41
2023-03-15T09:23:09.379Z,4.42
2023-03-15T09:24:09.362Z,4.52
2023-03-15T09:25:09.356Z,4.59
2023-03-15T09:26:09.337Z,4.58
2023-03-15T09:27:09.323Z,4.56
2023-03-15T09:28:09.315Z,4.70
2023-03-15T09:29:09.318Z,4.62
2023-03-15T09:30:09.354Z,4.58
2023-03-15T09:31:09.389Z,4.55
2023-03-15T09:32:09.308Z,4.56
2023-03-15T09:33:09.359Z,4.42
2023-03-15T09:34:09.297Z,4.42
2023-03-15T09:35:09.303Z,4.59
2023-03-15T09:36:09.275Z,4.60
2023-03-15T09:37:09.314Z,4.68
2023-03-15T09:38:09.283Z,4.56
2023-03-15T09:39:09.306Z,4.73
2023-03-15T09:40:09.261Z,4.68
2023-03-15T09:41:09.298Z,4.52
2023-03-15T09:42:09.252Z,4.59
2023-03-15T09:43:09.260Z,4.58
2023-03-15T09:44:09.255Z,4.63
2023-03-15T09:45:09.279Z,4.62
2023-03-15T09:46:09.370Z,4.71
2023-03-15T09:47:09.236Z,4.86
2023-03-15T09:48:09.220Z,4.70
2023-03-15T09:49:09.211Z,4.77
2023-03-15T09:50:09.206Z,4.92
2023-03-15T09:51:09.229Z,5.02
2023-03-15T09:52:09.197Z,5.04
2023-03-15T09:53:09.217Z,5.12
2023-03-15T09:54:09.177Z,5.17
2023-03-15T09:55:09.180Z,5.18
2023-03-15T09:56:09.177Z,5.43
2023-03-15T09:57:09.162Z,5.36
2023-03-15T09:58:09.177Z,5.56
2023-03-15T09:59:09.158Z,5.73
2023-03-15T10:00:09.156Z,6.19
2023-03-15T10:01:09.163Z,6.63
2023-03-15T10:02:09.128Z,6.95
2023-03-15T10:03:09.125Z,7.02
2023-03-15T10:04:09.141Z,7.13
2023-03-15T10:05:09.131Z,7.15
2023-03-15T10:06:09.115Z,7.17
2023-03-15T10:07:09.108Z,7.42
2023-03-15T10:08:09.102Z,7.53
2023-03-15T10:09:09.123Z,7.57
2023-03-15T10:10:09.084Z,7.76
2023-03-15T10:11:09.088Z,7.98
2023-03-15T10:12:09.093Z,8.15
2023-03-15T10:13:09.085Z,8.18
2023-03-15T10:14:09.077Z,8.24
2023-03-15T10:15:09.088Z,8.05
2023-03-15T10:16:09.080Z,8.05
2023-03-15T10:17:09.068Z,8.26
2023-03-15T10:18:09.055Z,8.45
2023-03-15T10:19:09.039Z,8.66
2023-03-15T10:20:09.059Z,8.70
2023-03-15T10:21:09.024Z,8.60
2023-03-15T10:22:09.042Z,8.61
2023-03-15T10:23:09.032Z,8.61
2023-03-15T10:24:09.005Z,8.27
2023-03-15T10:25:08.999Z,7.97
2023-03-15T10:26:09.014Z,7.93
2023-03-15T10:27:08.996Z,7.90
2023-03-15T10:28:08.992Z,7.69
2023-03-15T10:29:08.983Z,7.70
2023-03-15T10:30:08.978Z,7.54
2023-03-15T10:31:09.017Z,7.51
2023-03-15T10:32:09.070Z,7.31
2023-03-15T10:33:08.960Z,7.28
2023-03-15T10:34:08.950Z,7.10
2023-03-15T10:35:08.947Z,6.84
2023-03-15T10:36:11.402Z,6.87
2023-03-15T10:37:08.971Z,6.79
2023-03-15T10:38:08.979Z,6.69
2023-03-15T10:39:08.929Z,6.64
2023-03-15T10:40:08.945Z,6.75
2023-03-15T10:41:09.963Z,6.62
2023-03-15T10:42:08.907Z,6.69
2023-03-15T10:43:10.246Z,6.66
2023-03-15T10:44:08.957Z,6.62
2023-03-15T10:45:08.890Z,6.62
2023-03-15T10:46:08.977Z,6.66
2023-03-15T10:47:22.197Z,6.84
2023-03-15T10:48:09.869Z,6.93
2023-03-15T10:49:08.854Z,7.18
2023-03-15T10:50:08.872Z,7.24
2023-03-15T10:51:08.855Z,7.23
2023-03-15T10:52:08.837Z,7.00
2023-03-15T10:53:08.849Z,7.02
2023-03-15T10:54:08.851Z,7.03
2023-03-15T10:55:08.841Z,6.96
2023-03-15T10:56:08.834Z,6.89
2023-03-15T10:57:08.820Z,6.93
2023-03-15T10:58:08.808Z,7.03
2023-03-15T10:59:12.798Z,7.06
2023-03-15T11:00:08.812Z,6.85
2023-03-15T11:01:08.811Z,6.75
2023-03-15T11:02:08.857Z,6.54
2023-03-15T11:03:08.821Z,6.64
2023-03-15T11:04:08.786Z,6.69
2023-03-15T11:05:08.811Z,6.77
2023-03-15T11:06:08.766Z,6.66
2023-03-15T11:07:08.767Z,6.70
2023-03-15T11:08:08.778Z,6.75
2023-03-15T11:09:08.763Z,7.11
2023-03-15T11:10:08.755Z,7.02
2023-03-15T11:11:08.777Z,7.28
2023-03-15T11:12:08.738Z,7.40
2023-03-15T11:13:08.739Z,7.36
2023-03-15T11:14:08.719Z,7.33
2023-03-15T11:15:08.744Z,7.36
2023-03-15T11:16:08.746Z,7.40
2023-03-15T11:17:08.742Z,7.42
2023-03-15T11:18:09.562Z,7.47
2023-03-15T11:19:08.706Z,7.72
2023-03-15T11:20:08.739Z,7.77
2023-03-15T11:21:08.697Z,7.80
2023-03-15T11:22:08.712Z,7.85
2023-03-15T11:23:08.693Z,7.94
2023-03-15T11:24:08.674Z,7.98
2023-03-15T11:25:08.681Z,7.87
2023-03-15T11:26:09.571Z,7.70
2023-03-15T11:27:08.652Z,7.70
2023-03-15T11:28:08.648Z,7.70
2023-03-15T11:29:08.655Z,7.66
2023-03-15T11:30:08.643Z,7.54
2023-03-15T11:31:08.666Z,7.42
2023-03-15T11:32:08.661Z,7.42
2023-03-15T11:33:08.718Z,7.20
2023-03-15T11:34:08.639Z,7.13
2023-03-15T11:35:08.627Z,7.29
2023-03-15T11:36:19.388Z,7.38
2023-03-15T11:37:09.664Z,7.66
2023-03-15T11:38:15.163Z,7.63
2023-03-15T11:39:09.592Z,7.73
2023-03-15T11:40:12.019Z,7.93
2023-03-15T11:41:08.586Z,7.87
2023-03-15T11:42:10.992Z,7.91
2023-03-15T11:43:08.575Z,8.18
2023-03-15T11:44:08.562Z,8.27
2023-03-15T11:45:08.562Z,8.30
2023-03-15T11:46:08.720Z,8.30
2023-03-15T11:47:08.582Z,8.42
2023-03-15T11:48:08.570Z,8.51
2023-03-15T11:49:08.538Z,8.20
2023-03-15T11:50:08.529Z,8.34
2023-03-15T11:51:08.531Z,8.30
2023-03-15T11:52:08.526Z,8.48
2023-03-15T11:53:08.532Z,8.67
2023-03-15T11:54:08.539Z,8.95
2023-03-15T11:55:08.503Z,9.13
2023-03-15T11:56:08.539Z,9.28
2023-03-15T11:57:08.561Z,9.21
2023-03-15T11:58:08.500Z,9.29
2023-03-15T11:59:08.480Z,9.31
2023-03-15T12:00:08.503Z,9.37
2023-03-15T12:01:08.490Z,9.54
2023-03-15T12:02:08.512Z,9.54
2023-03-15T12:03:08.488Z,9.50
2023-03-15T12:04:08.455Z,9.59
2023-03-15T12:05:17.899Z,9.56
2023-03-15T12:06:09.457Z,9.55
2023-03-15T12:07:08.459Z,9.62
2023-03-15T12:08:08.432Z,9.68
2023-03-15T12:09:08.436Z,9.40
2023-03-15T12:10:08.431Z,9.47
2023-03-15T12:11:08.424Z,9.44
2023-03-15T12:12:08.422Z,9.23
2023-03-15T12:13:08.437Z,9.11
2023-03-15T12:14:08.400Z,8.97
2023-03-15T12:15:08.462Z,8.84
2023-03-15T12:16:08.391Z,8.79
2023-03-15T12:17:08.384Z,8.70
2023-03-15T12:18:08.381Z,8.71
2023-03-15T12:19:08.400Z,8.73
2023-03-15T12:20:08.371Z,8.67
2023-03-15T12:21:08.401Z,8.64
2023-03-15T12:22:08.388Z,8.61
2023-03-15T12:23:08.394Z,8.51
2023-03-15T12:24:08.403Z,8.55
2023-03-15T12:25:08.340Z,8.45
2023-03-15T12:26:08.337Z,8.37
2023-03-15T12:27:08.330Z,8.37
2023-03-15T12:28:08.327Z,8.36
2023-03-15T12:29:08.306Z,8.23
2023-03-15T12:30:08.317Z,8.15
2023-03-15T12:31:08.421Z,8.00
2023-03-15T12:32:08.302Z,7.80
2023-03-15T12:33:08.289Z,7.72
2023-03-15T12:34:08.291Z,7.77
2023-03-15T12:35:08.297Z,7.80
2023-03-15T12:36:08.324Z,8.05
2023-03-15T12:37:08.261Z,8.38
2023-03-15T12:38:08.264Z,8.63
2023-03-15T12:39:08.270Z,8.60
2023-03-15T12:40:08.261Z,8.46
2023-03-15T12:41:08.237Z,8.46
2023-03-15T12:42:08.237Z,8.30
2023-03-15T12:43:08.238Z,8.31
2023-03-15T12:44:08.219Z,8.16
2023-03-15T12:45:08.234Z,8.12
2023-03-15T12:46:08.290Z,8.00
2023-03-15T12:47:08.204Z,7.72
2023-03-15T12:48:08.192Z,7.73
2023-03-15T12:49:08.190Z,7.91
2023-03-15T12:50:08.204Z,8.00
2023-03-15T12:51:08.212Z,8.01
2023-03-15T12:52:08.167Z,8.10
2023-03-15T12:53:08.169Z,7.98
2023-03-15T12:54:08.161Z,7.91
2023-03-15T12:55:08.180Z,7.98
2023-03-15T12:56:08.989Z,8.20
2023-03-15T12:57:08.182Z,8.31
2023-03-15T12:58:08.139Z,8.34
2023-03-15T12:59:08.168Z,8.37
2023-03-15T13:00:08.126Z,8.34
2023-03-15T13:01:08.198Z,8.46
2023-03-15T13:02:08.115Z,8.52
2023-03-15T13:03:08.148Z,8.42
2023-03-15T13:04:08.121Z,8.49
2023-03-15T13:05:08.121Z,8.66
2023-03-15T13:06:08.090Z,8.64
2023-03-15T13:07:08.131Z,8.61
2023-03-15T13:08:08.082Z,8.46
2023-03-15T13:09:08.105Z,8.64
2023-03-15T13:10:08.130Z,8.61
2023-03-15T13:11:08.078Z,8.73
2023-03-15T13:12:08.063Z,8.79
2023-03-15T13:13:08.065Z,8.63
2023-03-15T13:14:08.089Z,8.69
2023-03-15T13:15:08.050Z,8.55
2023-03-15T13:16:08.097Z,8.49
2023-03-15T13:17:08.047Z,8.41
2023-03-15T13:18:08.034Z,8.56